createdAt,value
2022-09-23T00:00:17.701Z,8.2
2022-09-23T00:02:42.766Z,8
2022-09-23T00:05:09.393Z,6.9
2022-09-23T00:07:36.042Z,7.7
2022-09-23T00:10:02.636Z,7.7
2022-09-23T00:12:29.289Z,8.6
2022-09-23T00:14:55.901Z,6.3
2022-09-23T00:17:22.519Z,6.8
2022-09-23T00:19:49.125Z,7.6
2022-09-23T00:22:15.762Z,6.1
2022-09-23T00:24:42.366Z,6.6
2022-09-23T00:27:09.050Z,7.9
2022-09-23T00:29:35.704Z,7.8
2022-09-23T00:32:02.243Z,8.5
2022-09-23T00:34:27.396Z,7.7
2022-09-23T00:36:54.023Z,8.3
2022-09-23T00:39:20.642Z,7.7
2022-09-23T00:41:47.340Z,9
2022-09-23T00:44:13.858Z,8
2022-09-23T00:46:40.565Z,7.3
2022-09-23T00:49:07.135Z,6.5
2022-09-23T00:51:33.721Z,8.3
2022-09-23T00:54:00.361Z,6.7
2022-09-23T00:56:27.009Z,5.9
2022-09-23T00:58:53.590Z,6.9
2022-09-23T01:01:20.223Z,6.9
2022-09-23T01:03:46.863Z,6.3
2022-09-23T01:06:11.984Z,8.4
2022-09-23T01:08:38.600Z,9.4
2022-09-23T01:11:05.233Z,7.7
2022-09-23T01:13:31.833Z,7.6
2022-09-23T01:15:58.465Z,6.1
2022-09-23T01:18:25.087Z,6.1
2022-09-23T01:20:51.784Z,7.3
2022-09-23T01:23:18.359Z,6.2
2022-09-23T01:25:44.996Z,6.5
2022-09-23T01:28:11.589Z,8
2022-09-23T01:30:38.247Z,6.6
2022-09-23T01:33:04.823Z,6.3
2022-09-23T01:35:31.439Z,6.8
2022-09-23T01:37:56.581Z,8.8
2022-09-23T01:40:23.258Z,8.2
2022-09-23T01:42:49.817Z,7.4
2022-09-23T01:45:16.450Z,6.1
2022-09-23T01:47:43.062Z,7.4
2022-09-23T01:50:09.691Z,6.2
2022-09-23T01:52:36.339Z,7.4
2022-09-23T01:55:02.964Z,6.5
2022-09-23T01:57:29.596Z,7
2022-09-23T01:59:56.285Z,5.9
2022-09-23T02:02:22.818Z,6.6
2022-09-23T02:04:49.518Z,6.3
2022-09-23T02:07:16.064Z,9.7
2022-09-23T02:09:41.186Z,6.4
2022-09-23T02:12:07.824Z,8.2
2022-09-23T02:14:34.494Z,7.1
2022-09-23T02:17:01.071Z,9
2022-09-23T02:19:27.667Z,6.9
2022-09-23T02:21:54.293Z,5.8
2022-09-23T02:24:20.940Z,8
2022-09-23T02:26:47.549Z,9.3
2022-09-23T02:29:14.175Z,7.3
2022-09-23T02:31:40.805Z,7.7
2022-09-23T02:34:07.437Z,7.3
2022-09-23T02:36:34.042Z,8.2
2022-09-23T02:39:00.704Z,7.9
2022-09-23T02:41:25.790Z,8.7
2022-09-23T02:43:52.420Z,7.1
2022-09-23T02:46:19.029Z,6.4
2022-09-23T02:48:45.658Z,5.9
2022-09-23T02:51:12.289Z,5.5
2022-09-23T02:53:38.910Z,6.6
2022-09-23T02:56:05.528Z,8.3
2022-09-23T02:58:32.169Z,7
2022-09-23T03:00:58.771Z,5.5
2022-09-23T03:03:25.396Z,7.8
2022-09-23T03:05:52.023Z,7.4
2022-09-23T03:08:18.637Z,6.2
2022-09-23T03:10:45.265Z,6.7
2022-09-23T03:13:10.410Z,6.9
2022-09-23T03:15:37.041Z,5.7
2022-09-23T03:18:03.657Z,6.3
2022-09-23T03:20:30.274Z,7.8
2022-09-23T03:22:56.902Z,8.4
2022-09-23T03:25:23.534Z,6.4
2022-09-23T03:27:50.134Z,8.3
2022-09-23T03:30:16.779Z,7.1
2022-09-23T03:32:43.421Z,7.5
2022-09-23T03:35:10.098Z,7.1
2022-09-23T03:37:36.677Z,7.6
2022-09-23T03:40:03.285Z,8.7
2022-09-23T03:42:29.879Z,7.7
2022-09-23T03:44:55.014Z,7.2
2022-09-23T03:47:21.627Z,7.4
2022-09-23T03:49:48.256Z,7.1
2022-09-23T03:52:14.871Z,10.2
2022-09-23T03:54:41.490Z,7.4
2022-09-23T03:57:08.223Z,6.9
2022-09-23T03:59:34.782Z,7.2
2022-09-23T04:02:01.356Z,7.7
2022-09-23T04:04:27.983Z,8.9
2022-09-23T04:06:54.618Z,8.1
2022-09-23T04:09:21.223Z,9
2022-09-23T04:11:47.861Z,10.1
2022-09-23T04:14:14.492Z,7.7
2022-09-23T04:16:39.602Z,8.5
2022-09-23T04:19:06.229Z,9.9
2022-09-23T04:21:32.868Z,6.3
2022-09-23T04:23:59.518Z,8.9
2022-09-23T04:26:26.129Z,7.3
2022-09-23T04:28:52.740Z,7.8
2022-09-23T04:31:19.345Z,5.7
2022-09-23T04:33:45.973Z,8.3
2022-09-23T04:36:12.601Z,5.9
2022-09-23T04:38:39.207Z,9.1
2022-09-23T04:41:05.864Z,6
2022-09-23T04:43:32.472Z,9.9
2022-09-23T04:45:59.102Z,8.6
2022-09-23T04:48:24.234Z,8.2
2022-09-23T04:50:50.837Z,9
2022-09-23T04:53:17.461Z,11.1
2022-09-23T04:55:44.080Z,9
2022-09-23T04:58:10.740Z,7.4
2022-09-23T05:00:37.323Z,6.7
2022-09-23T05:03:03.954Z,6.4
2022-09-23T05:05:30.578Z,7.1
2022-09-23T05:07:57.248Z,7.3
2022-09-23T05:10:23.843Z,6.4
2022-09-23T05:12:50.431Z,7.8
2022-09-23T05:15:17.073Z,6.9
2022-09-23T05:17:43.694Z,6.3
2022-09-23T05:20:08.822Z,7.2
2022-09-23T05:22:35.449Z,7.2
2022-09-23T05:25:02.083Z,6.1
2022-09-23T05:27:28.684Z,9.4
2022-09-23T05:29:55.301Z,6.8
2022-09-23T05:32:21.924Z,6
2022-09-23T05:34:48.558Z,8.1
2022-09-23T05:37:15.175Z,6.2
2022-09-23T05:39:41.791Z,6.5
2022-09-23T05:42:08.445Z,4.1
2022-09-23T05:44:35.051Z,4.4
2022-09-23T05:47:01.678Z,3
2022-09-23T05:49:28.352Z,4.8
2022-09-23T05:51:53.438Z,3.9
2022-09-23T05:54:20.040Z,3.7
2022-09-23T05:56:46.787Z,3.4
2022-09-23T05:59:13.298Z,4.4
2022-09-23T06:01:39.971Z,3.2
2022-09-23T06:04:06.534Z,5.4
2022-09-23T06:06:33.234Z,7.2
2022-09-23T06:08:59.910Z,3.8
2022-09-23T06:11:26.417Z,4
2022-09-23T06:13:53.064Z,4.6
2022-09-23T06:16:19.712Z,5.5
2022-09-23T06:18:46.326Z,3.8
2022-09-23T06:21:12.970Z,4.7
2022-09-23T06:23:38.159Z,4.2
2022-09-23T06:26:04.671Z,5.7
2022-09-23T06:28:31.317Z,6.1
2022-09-23T06:30:57.882Z,3.9
2022-09-23T06:33:24.638Z,4.2
2022-09-23T06:35:51.134Z,4.2
2022-09-23T06:38:17.781Z,4.3
2022-09-23T06:40:44.385Z,5
2022-09-23T06:43:11.014Z,4.9
2022-09-23T06:45:37.633Z,5.2
2022-09-23T06:48:04.276Z,6.6
2022-09-23T06:50:30.866Z,4.2
2022-09-23T06:52:57.499Z,4.7
2022-09-23T06:55:22.621Z,5.1
2022-09-23T06:57:49.252Z,4.5
2022-09-23T07:00:15.879Z,4.3
2022-09-23T07:02:42.501Z,4.8
2022-09-23T07:05:09.107Z,5.6
2022-09-23T07:07:35.739Z,4.9
2022-09-23T07:10:02.373Z,4.6
2022-09-23T07:12:28.987Z,4.7
2022-09-23T07:14:55.606Z,6.2
2022-09-23T07:17:22.235Z,7.6
2022-09-23T07:19:48.844Z,6.1
2022-09-23T07:22:15.471Z,5.7
2022-09-23T07:24:42.101Z,4.7
2022-09-23T07:27:07.220Z,6.1
2022-09-23T07:29:33.849Z,5.4
2022-09-23T07:32:00.612Z,4.9
2022-09-23T07:34:27.111Z,4.8
2022-09-23T07:36:53.719Z,4.5
2022-09-23T07:39:20.339Z,4.8
2022-09-23T07:41:45.465Z,4.7
2022-09-23T07:44:12.093Z,5.1
2022-09-23T07:49:05.339Z,4.7
2022-09-23T07:51:31.965Z,5.7
2022-09-23T07:53:58.582Z,5.7
2022-09-23T07:56:25.210Z,7.4
2022-09-23T07:58:51.831Z,5.9
2022-09-23T08:01:18.447Z,5.1
2022-09-23T08:03:45.068Z,5.6
2022-09-23T08:06:11.697Z,4.3
2022-09-23T08:08:38.330Z,5.7
2022-09-23T08:11:04.940Z,7.2
2022-09-23T08:13:30.063Z,4.7
2022-09-23T08:15:56.698Z,6.4
2022-09-23T08:18:23.311Z,4.6
2022-09-23T08:20:49.942Z,5.2
2022-09-23T08:23:16.567Z,4.5
2022-09-23T08:25:43.224Z,5
2022-09-23T08:28:09.807Z,5.5
2022-09-23T08:30:36.462Z,4.9
2022-09-23T08:33:03.050Z,5.1
2022-09-23T08:35:29.675Z,6.7
2022-09-23T08:37:56.299Z,4.5
2022-09-23T08:40:22.934Z,4.9
2022-09-23T08:42:49.545Z,4.9
2022-09-23T08:45:14.684Z,4.7
2022-09-23T08:47:41.287Z,5.7
2022-09-23T08:50:07.923Z,5.2
2022-09-23T08:52:34.538Z,5.2
2022-09-23T08:55:01.160Z,6.8
2022-09-23T08:57:27.784Z,4.8
2022-09-23T08:59:54.408Z,4.5
2022-09-23T09:02:21.026Z,4.4
2022-09-23T09:04:47.659Z,6.1
2022-09-23T09:07:14.276Z,4.8
2022-09-23T09:09:40.908Z,6.9
2022-09-23T09:12:07.529Z,4.5
2022-09-23T09:14:34.146Z,4.2
2022-09-23T09:16:59.349Z,3.8
2022-09-23T09:19:25.895Z,4.6
2022-09-23T09:21:52.510Z,3.9
2022-09-23T09:24:19.238Z,4.5
2022-09-23T09:26:45.774Z,5
2022-09-23T09:29:12.486Z,4.5
2022-09-23T09:31:38.999Z,8.2
2022-09-23T09:34:05.626Z,5.1
2022-09-23T09:36:32.271Z,5.7
2022-09-23T09:38:58.874Z,3.8
2022-09-23T09:41:25.498Z,3.6
2022-09-23T09:43:52.132Z,3.4
2022-09-23T09:46:18.748Z,3.7
2022-09-23T09:48:43.883Z,3.9
2022-09-23T09:51:10.503Z,4.3
2022-09-23T09:53:37.059Z,3.5
2022-09-23T09:56:03.684Z,3.5
2022-09-23T09:58:30.313Z,3.7
2022-09-23T10:00:56.951Z,3.8
2022-09-23T10:03:23.555Z,5.1
2022-09-23T10:05:50.171Z,4.2
2022-09-23T10:08:16.803Z,3.3
2022-09-23T10:10:43.414Z,5.6
2022-09-23T10:13:10.044Z,3.1
2022-09-23T10:15:36.658Z,3.3
2022-09-23T10:18:03.297Z,3.3
2022-09-23T10:20:28.407Z,3.1
2022-09-23T10:22:55.036Z,4.2
2022-09-23T10:25:21.658Z,3
2022-09-23T10:27:48.295Z,4.2
2022-09-23T10:30:14.893Z,4.3
2022-09-23T10:32:41.538Z,3.9
2022-09-23T10:35:08.148Z,3.2
2022-09-23T10:37:34.779Z,3.2
2022-09-23T10:40:01.400Z,4
2022-09-23T10:42:28.019Z,2.8
2022-09-23T10:44:54.654Z,3.8
2022-09-23T10:47:21.258Z,2.7
2022-09-23T10:49:47.887Z,4.1
2022-09-23T10:52:13.023Z,4.5
2022-09-23T10:54:39.647Z,4.1
2022-09-23T10:57:06.264Z,3.6
2022-09-23T10:59:32.896Z,4.9
2022-09-23T11:01:59.518Z,5.8
2022-09-23T11:04:26.137Z,3.9
2022-09-23T11:06:52.754Z,6.5
2022-09-23T11:09:19.381Z,3.9
2022-09-23T11:11:46.023Z,3
2022-09-23T11:14:12.648Z,3.4
2022-09-23T11:16:39.250Z,3.5
2022-09-23T11:19:05.866Z,2.9
2022-09-23T11:21:32.495Z,3.1
2022-09-23T11:23:57.633Z,3.6
2022-09-23T11:26:24.255Z,3.5
2022-09-23T11:28:50.880Z,3.7
2022-09-23T11:31:17.501Z,4
2022-09-23T11:33:44.148Z,3.2
2022-09-23T11:36:10.745Z,3.2
2022-09-23T11:41:03.991Z,3.2
2022-09-23T11:43:30.635Z,3.1
2022-09-23T11:45:57.244Z,3.8
2022-09-23T11:48:23.855Z,3.6
2022-09-23T11:50:50.492Z,3.8
2022-09-23T11:53:17.119Z,2.3
2022-09-23T11:55:42.386Z,5.2
2022-09-23T11:58:09.004Z,2.5
2022-09-23T12:00:35.488Z,3.7
2022-09-23T12:03:02.277Z,2.5
2022-09-23T12:05:28.729Z,3.2
2022-09-23T12:07:55.359Z,2.1
2022-09-23T12:10:21.982Z,3.2
2022-09-23T12:12:48.596Z,2.8
2022-09-23T12:15:15.223Z,4.3
2022-09-23T12:17:41.841Z,3.1
2022-09-23T12:20:08.576Z,3.2
2022-09-23T12:22:35.242Z,2.6
2022-09-23T12:25:01.840Z,3.3
2022-09-23T12:27:28.332Z,3
2022-09-23T12:29:55.105Z,4.4
2022-09-23T12:32:20.206Z,5.7
2022-09-23T12:34:46.858Z,3.5
2022-09-23T12:39:39.961Z,2.8
2022-09-23T12:42:06.719Z,3.7
2022-09-23T12:44:33.357Z,3
2022-09-23T12:46:59.974Z,2.9
2022-09-23T12:49:26.604Z,2.7
2022-09-23T12:51:53.223Z,3.5
2022-09-23T12:54:19.838Z,2.9
2022-09-23T12:56:46.471Z,2.9
2022-09-23T12:59:12.942Z,2.7
2022-09-23T13:01:39.667Z,4.8
2022-09-23T13:04:04.861Z,2.6
2022-09-23T13:06:31.461Z,2.8
2022-09-23T13:08:58.061Z,3.5
2022-09-23T13:11:24.731Z,3.7
2022-09-23T13:13:51.348Z,3
2022-09-23T13:16:17.942Z,4
2022-09-23T13:18:44.561Z,2.6
2022-09-23T13:21:11.187Z,3.2
2022-09-23T13:23:37.754Z,3.7
2022-09-23T13:26:04.444Z,4.8
2022-09-23T13:28:31.057Z,5.7
2022-09-23T13:30:57.689Z,3.6
2022-09-23T13:33:24.311Z,5.9
2022-09-23T13:35:49.440Z,5
2022-09-23T13:38:16.059Z,7.2
2022-09-23T13:40:42.641Z,4.7
2022-09-23T13:43:09.314Z,4.4
2022-09-23T13:45:35.963Z,4
2022-09-23T13:48:02.550Z,3
2022-09-23T13:50:29.181Z,3.1
2022-09-23T13:52:55.811Z,2.9
2022-09-23T13:55:22.418Z,3
2022-09-23T13:57:49.013Z,3.3
2022-09-23T14:00:15.520Z,3.6
2022-09-23T14:02:42.287Z,3.8
2022-09-23T14:05:08.922Z,2.9
2022-09-23T14:07:34.040Z,3
2022-09-23T14:10:00.676Z,3.9
2022-09-23T14:12:27.330Z,3
2022-09-23T14:14:53.873Z,3.8
2022-09-23T14:17:20.544Z,3.9
2022-09-23T14:19:47.159Z,3.7
2022-09-23T14:22:13.762Z,5.3
2022-09-23T14:24:40.366Z,4.1
2022-09-23T14:27:07.022Z,2.8
2022-09-23T14:29:33.610Z,4.7
2022-09-23T14:32:00.287Z,4.6
2022-09-23T14:34:26.887Z,3.1
2022-09-23T14:36:53.550Z,3.6
2022-09-23T14:39:18.638Z,3.7
2022-09-23T14:41:45.125Z,3.6
2022-09-23T14:44:11.917Z,3.3
2022-09-23T14:46:38.539Z,5.9
2022-09-23T14:49:05.009Z,3.7
2022-09-23T14:51:31.753Z,7.5
2022-09-23T14:53:58.383Z,4.3
2022-09-23T14:56:25.004Z,3.9
2022-09-23T14:58:51.621Z,3.9
2022-09-23T15:01:18.312Z,3.1
2022-09-23T15:03:44.901Z,4.6
2022-09-23T15:06:11.517Z,4.9
2022-09-23T15:08:38.100Z,6.3
2022-09-23T15:11:03.262Z,2.9
2022-09-23T15:13:29.869Z,5.5
2022-09-23T15:15:56.504Z,3.9
2022-09-23T15:18:23.106Z,6.3
2022-09-23T15:20:49.611Z,3.5
2022-09-23T15:23:16.352Z,4
2022-09-23T15:25:43.013Z,3.1
2022-09-23T15:28:09.616Z,3.9
2022-09-23T15:30:36.251Z,5.3
2022-09-23T15:33:02.850Z,4.6
2022-09-23T15:35:29.374Z,6.1
2022-09-23T15:37:56.111Z,3.4
2022-09-23T15:40:22.593Z,3.9
2022-09-23T15:42:47.869Z,4.4
2022-09-23T15:45:14.483Z,4
2022-09-23T15:47:41.125Z,6.5
2022-09-23T15:50:07.591Z,4.7
2022-09-23T15:52:32.846Z,4.5
2022-09-23T15:54:59.352Z,4.4
2022-09-23T15:57:26.031Z,6.7
2022-09-23T15:59:52.601Z,4.4
2022-09-23T16:02:19.214Z,4.5
2022-09-23T16:04:45.872Z,4.3
2022-09-23T16:07:12.458Z,4.3
2022-09-23T16:09:39.227Z,3.8
2022-09-23T16:12:05.719Z,4.8
2022-09-23T16:14:32.331Z,4.3
2022-09-23T16:16:58.988Z,5.4
2022-09-23T16:19:25.568Z,4.2
2022-09-23T16:21:52.196Z,4.2
2022-09-23T16:24:17.348Z,4.9
2022-09-23T16:26:44.037Z,5.6
2022-09-23T16:29:10.567Z,10.3
2022-09-23T16:34:03.864Z,7.2
2022-09-23T16:36:30.549Z,5.3
2022-09-23T16:38:57.191Z,6.4
2022-09-23T16:41:23.813Z,4.3
2022-09-23T16:43:50.409Z,3.6
2022-09-23T16:46:16.937Z,5.2
2022-09-23T16:48:43.576Z,3.7
2022-09-23T16:51:10.170Z,5.8
2022-09-23T16:53:36.834Z,4.6
2022-09-23T16:58:28.601Z,6.9
2022-09-23T17:00:55.286Z,6.6
2022-09-23T17:03:21.788Z,6
2022-09-23T17:05:48.429Z,7.4
2022-09-23T17:08:15.098Z,4.6
2022-09-23T17:10:41.783Z,5.1
2022-09-23T17:13:08.361Z,3.9
2022-09-23T17:15:34.927Z,6.1
2022-09-23T17:18:01.537Z,6.6
2022-09-23T17:20:28.201Z,5.9
2022-09-23T17:22:54.858Z,4.7
2022-09-23T17:25:21.411Z,7.3
2022-09-23T17:27:48.035Z,4.9
2022-09-23T17:30:13.244Z,5
2022-09-23T17:32:39.787Z,4
2022-09-23T17:35:06.408Z,4.6
2022-09-23T17:37:33.046Z,4.8
2022-09-23T17:39:59.631Z,7.1
2022-09-23T17:42:26.305Z,5.4
2022-09-23T17:44:52.913Z,4.7
2022-09-23T17:47:19.521Z,4.3
2022-09-23T17:49:46.145Z,4.3
2022-09-23T17:52:12.760Z,4.7
2022-09-23T17:54:39.404Z,5.4
2022-09-23T17:57:06.004Z,6.4
2022-09-23T17:59:32.703Z,6.5
2022-09-23T18:01:57.762Z,6.7
2022-09-23T18:04:24.374Z,5.9
2022-09-23T18:06:50.999Z,6.5
2022-09-23T18:11:44.240Z,5.7
2022-09-23T18:14:10.859Z,8.3
2022-09-23T18:16:37.467Z,6.4
2022-09-23T18:19:04.104Z,5.1
2022-09-23T18:21:30.763Z,5.1
2022-09-23T18:23:57.359Z,7.1
2022-09-23T18:26:23.977Z,5.6
2022-09-23T18:28:50.607Z,6
2022-09-23T18:31:17.224Z,6.2
2022-09-23T18:33:42.396Z,7.5
2022-09-23T18:36:08.968Z,6.9
2022-09-23T18:38:35.590Z,7.9
2022-09-23T18:41:02.217Z,8.6
2022-09-23T18:43:28.842Z,8
2022-09-23T18:45:55.463Z,7.4
2022-09-23T18:48:22.088Z,13.1
2022-09-23T18:50:48.717Z,7.3
2022-09-23T18:53:15.375Z,6.1
2022-09-23T18:55:41.945Z,6.3
2022-09-23T18:58:08.617Z,8.5
2022-09-23T19:00:35.186Z,10.1
2022-09-23T19:03:01.830Z,7.6
2022-09-23T19:05:26.946Z,9.2
2022-09-23T19:07:53.611Z,7.8
2022-09-23T19:10:20.209Z,8.3
2022-09-23T19:12:46.839Z,9.8
2022-09-23T19:15:13.455Z,6.2
2022-09-23T19:17:40.067Z,9.7
2022-09-23T19:20:06.696Z,9.3
2022-09-23T19:24:59.933Z,9.2
2022-09-23T19:27:26.544Z,6.2
2022-09-23T19:29:53.175Z,6.4
2022-09-23T19:32:19.806Z,6.8
2022-09-23T19:34:46.415Z,6.6
2022-09-23T19:37:11.584Z,8.2
2022-09-23T19:39:38.169Z,8.2
2022-09-23T19:42:04.786Z,7.3
2022-09-23T19:44:31.441Z,11.6
2022-09-23T19:49:24.692Z,9.4
2022-09-23T19:51:51.271Z,7.3
2022-09-23T19:54:17.901Z,6.9
2022-09-23T19:56:44.528Z,8.6
2022-09-23T19:59:11.140Z,7.2
2022-09-23T20:01:37.760Z,7.4
2022-09-23T20:04:04.390Z,6.7
2022-09-23T20:06:31.002Z,9.6
2022-09-23T20:08:56.156Z,7.3
2022-09-23T20:13:49.379Z,13.2
2022-09-23T20:16:14.526Z,10.8
2022-09-23T20:18:39.651Z,11.8
2022-09-23T20:21:06.267Z,9.8
2022-09-23T20:23:32.879Z,7.8
2022-09-23T20:25:59.512Z,6.8
2022-09-23T20:28:26.165Z,8.1
2022-09-23T20:30:52.759Z,7.8
2022-09-23T20:33:19.381Z,8.1
2022-09-23T20:38:12.630Z,8.6
2022-09-23T20:40:39.260Z,7.4
2022-09-23T20:43:05.868Z,7.1
2022-09-23T20:45:32.525Z,8.3
2022-09-23T20:47:59.116Z,8.7
2022-09-23T20:50:25.743Z,8.5
2022-09-23T20:52:50.877Z,8.2
2022-09-23T20:55:17.482Z,10.7
2022-09-23T20:57:44.116Z,9.8
2022-09-23T21:02:37.358Z,9.2
2022-09-23T21:05:02.480Z,10.4
2022-09-23T21:07:27.629Z,9
2022-09-23T21:09:54.239Z,9.2
2022-09-23T21:12:20.877Z,10.4
2022-09-23T21:14:47.494Z,9.3
2022-09-23T21:17:14.111Z,11.1
2022-09-23T21:19:40.739Z,12.9
2022-09-23T21:22:07.361Z,15.5
2022-09-23T21:27:00.599Z,10.5
2022-09-23T21:29:27.216Z,12.8
2022-09-23T21:31:53.837Z,11.2
2022-09-23T21:34:20.467Z,11.7
2022-09-23T21:36:47.095Z,9.3
2022-09-23T21:39:12.230Z,9.7
2022-09-23T21:41:38.860Z,11.8
2022-09-23T21:44:05.471Z,10.7
2022-09-23T21:46:32.084Z,11.8
2022-09-23T21:51:25.333Z,9.5
2022-09-23T21:53:51.946Z,11.8
2022-09-23T21:56:18.583Z,10.5
2022-09-23T21:58:45.190Z,15.5
2022-09-23T22:01:11.808Z,12.6
2022-09-23T22:03:38.441Z,15
2022-09-23T22:06:05.065Z,14.3
2022-09-23T22:08:31.672Z,14.9
2022-09-23T22:10:58.305Z,12.5
2022-09-23T22:15:50.052Z,9.9
2022-09-23T22:18:16.683Z,10.4
2022-09-23T22:20:43.322Z,9.1
2022-09-23T22:23:09.921Z,9.2
2022-09-23T22:25:36.535Z,10.2
2022-09-23T22:28:03.201Z,9.4
2022-09-23T22:30:29.798Z,9.7
2022-09-23T22:32:56.437Z,11
2022-09-23T22:35:23.073Z,11.7
2022-09-23T22:40:16.291Z,9.3
2022-09-23T22:42:42.911Z,9.8
2022-09-23T22:45:08.090Z,10.1
2022-09-23T22:47:34.655Z,9.5
2022-09-23T22:50:01.331Z,9.8
2022-09-23T22:52:27.993Z,11
2022-09-23T22:54:54.530Z,12
2022-09-23T22:57:21.179Z,11.3
2022-09-23T22:59:47.777Z,11.9
2022-09-23T23:04:41.113Z,13
2022-09-23T23:07:07.655Z,13
2022-09-23T23:09:34.373Z,12.4
2022-09-23T23:12:00.970Z,11.6
2022-09-23T23:14:27.521Z,12.3
2022-09-23T23:16:52.666Z,14.3
2022-09-23T23:19:19.271Z,11.1
2022-09-23T23:21:45.914Z,12.6
2022-09-23T23:24:12.511Z,12.4
2022-09-23T23:29:05.759Z,10.7
2022-09-23T23:31:32.382Z,12.8
2022-09-23T23:33:59.029Z,10.4
2022-09-23T23:36:25.639Z,11.5
2022-09-23T23:38:52.293Z,15.4
2022-09-23T23:41:18.873Z,10.8
2022-09-23T23:43:45.496Z,10.3
2022-09-23T23:46:12.107Z,10.5
2022-09-23T23:48:38.739Z,11.9
2022-09-23T23:53:30.489Z,11.2
2022-09-23T23:55:57.121Z,12.5
2022-09-23T23:58:23.790Z,11.9
